Monsun — LG3433 — position and weather

sailwx.info

Track history (hours):
 
Tides and Currents Weather Stations Pressure Air Temp Water Temp Dewpoint Dewpoint Depression Visibility Wind Speed Wind Dir Waves Ship Positions

Monsun

Last reported at 2016-Dec-02 20:30 UTC. Time now 2016-Dec-05 16:38 UTC.
Position N 69°31' E 017°39'.

Length 10 m.

Type: Fishing. MMSI: 257005610.

Date/timePositionNaut miles runAvg speedWind from/ knotsBaromVisibWave heightAir tempDewpointWater temp
2016-Dec-02 20:30N 69°31' E 017°39'2 1.6
2016-Dec-02 19:19N 69°33' E 017°40'3 4.2
2016-Dec-02 18:33N 69°36' E 017°37'2 2.2
2016-Dec-02 17:32N 69°35' E 017°43'2 2.1
2016-Dec-02 16:32N 69°34' E 017°38'3 3.2
2016-Dec-02 15:32N 69°36' E 017°44'0 0.5
2016-Dec-02 14:32N 69°37' E 017°44'2 2.4
2016-Dec-02 13:34N 69°39' E 017°42'5 5.3
2016-Dec-02 12:33N 69°37' E 017°27'5 4.9
2016-Dec-02 11:32N 69°35' E 017°14'9 9.2
2016-Dec-02 10:31N 69°31' E 017°39'5 4.9
2016-Dec-02 09:31N 69°36' E 017°39'5 5.4
2016-Dec-02 08:33N 69°35' E 017°53'4 0.1
2016-Nov-30 15:32N 69°31' E 017°54'0 0.0
2016-Nov-30 14:31N 69°31' E 017°54'0 0.0
2016-Nov-30 13:33N 69°31' E 017°54'0 0.0
2016-Nov-30 12:33N 69°31' E 017°54'0 0.0
2016-Nov-30 11:31N 69°31' E 017°54'0 0.0
2016-Nov-30 10:33N 69°31' E 017°54'0 0.0
2016-Nov-30 09:31N 69°31' E 017°54'0 0.0
2016-Nov-30 08:32N 69°31' E 017°54'0 0.0
2016-Nov-30 07:32N 69°31' E 017°54'0 0.0
2016-Nov-30 06:33N 69°31' E 017°54'0 0.0
2016-Nov-30 05:32N 69°31' E 017°54'0 0.0
2016-Nov-30 04:31N 69°31' E 017°54'0 0.0
2016-Nov-30 03:30N 69°31' E 017°54'0 0.0
2016-Nov-30 02:33N 69°31' E 017°54'0 0.0
2016-Nov-30 01:32N 69°31' E 017°54'0 0.0
2016-Nov-30 00:31N 69°31' E 017°54'0 0.0
2016-Nov-29 23:32N 69°31' E 017°54'0 0.0
2016-Nov-29 22:31N 69°31' E 017°54'0 0.0
2016-Nov-29 21:33N 69°31' E 017°54'0 0.0
2016-Nov-29 20:32N 69°31' E 017°54'0 0.0
2016-Nov-29 19:32N 69°31' E 017°54'0 0.0
2016-Nov-29 18:31N 69°31' E 017°54'0 0.0
2016-Nov-29 17:31N 69°31' E 017°54'0 0.0
2016-Nov-29 16:34N 69°31' E 017°54'0 0.0
2016-Nov-29 15:32N 69°31' E 017°54'0 0.0
2016-Nov-29 14:33N 69°31' E 017°54'0 0.0
2016-Nov-29 13:31N 69°31' E 017°54'0 0.0
2016-Nov-29 12:33N 69°31' E 017°54'0 0.0
2016-Nov-29 11:32N 69°31' E 017°54'0 0.0
2016-Nov-29 10:33N 69°31' E 017°54'0 0.0
2016-Nov-29 09:33N 69°31' E 017°54'0 0.0
2016-Nov-29 08:33N 69°31' E 017°54'0 0.0
2016-Nov-29 07:31N 69°31' E 017°54'0 0.0
2016-Nov-29 06:33N 69°31' E 017°54'0 0.0
2016-Nov-29 05:32N 69°31' E 017°54'0 0.0
2016-Nov-29 04:33N 69°31' E 017°54'0 0.0
2016-Nov-29 03:33N 69°31' E 017°54'0 0.0
2016-Nov-29 02:30N 69°31' E 017°54'0 0.0
2016-Nov-29 01:31N 69°31' E 017°54'0 0.0
2016-Nov-29 00:33N 69°31' E 017°54'0 0.0
2016-Nov-28 23:32N 69°31' E 017°54'0 0.0
2016-Nov-28 22:33N 69°31' E 017°54'0 0.0
2016-Nov-28 21:32N 69°31' E 017°54'0 0.0
2016-Nov-28 20:33N 69°31' E 017°54'0 0.0
2016-Nov-28 19:32N 69°31' E 017°54'0 0.0
2016-Nov-28 18:33N 69°31' E 017°54'0 0.0
2016-Nov-28 17:34N 69°31' E 017°54'0 0.0
2016-Nov-28 16:30N 69°31' E 017°54'0 0.0
2016-Nov-28 15:31N 69°31' E 017°54'0 0.0
2016-Nov-28 14:33N 69°31' E 017°54'0 0.0
2016-Nov-28 13:31N 69°31' E 017°54'0 0.0
2016-Nov-28 12:31N 69°31' E 017°54'0 0.0
2016-Nov-28 11:32N 69°31' E 017°54'0 0.0
2016-Nov-28 10:33N 69°31' E 017°54'0 0.0
2016-Nov-28 09:33N 69°31' E 017°54'0 0.0
2016-Nov-28 08:32N 69°31' E 017°54'0 0.0
2016-Nov-28 07:30N 69°31' E 017°54'0 0.0
2016-Nov-28 06:30N 69°31' E 017°54'0 0.0
2016-Nov-28 05:30N 69°31' E 017°54'0 0.0
2016-Nov-28 04:31N 69°31' E 017°54'0 0.0
2016-Nov-28 03:33N 69°31' E 017°54'0 0.0
2016-Nov-28 02:32N 69°31' E 017°54'0 0.0
2016-Nov-28 01:31N 69°31' E 017°54'0 0.0
2016-Nov-28 00:32N 69°31' E 017°54'0 0.0
2016-Nov-27 23:33N 69°31' E 017°54'0 0.0
2016-Nov-27 22:31N 69°31' E 017°54'0 0.0
2016-Nov-27 21:33N 69°31' E 017°54'0 0.0
2016-Nov-27 20:28N 69°31' E 017°54'0 0.0
2016-Nov-27 19:33N 69°31' E 017°54'0 0.0
2016-Nov-27 18:33N 69°31' E 017°54'0 0.0
2016-Nov-27 17:31N 69°31' E 017°54'0 0.0
2016-Nov-27 16:29N 69°31' E 017°54'0 0.0
2016-Nov-27 15:33N 69°31' E 017°54'0 0.0
2016-Nov-27 14:33N 69°31' E 017°54'0 0.0
2016-Nov-27 13:30N 69°31' E 017°54'0 0.0
2016-Nov-27 12:31N 69°31' E 017°54'0 0.0
2016-Nov-27 11:32N 69°31' E 017°54'0 0.0
2016-Nov-27 10:32N 69°31' E 017°54'0 0.0
2016-Nov-27 09:33N 69°31' E 017°54'0 0.0
2016-Nov-27 08:32N 69°31' E 017°54'0 0.0
2016-Nov-27 07:33N 69°31' E 017°54'0 0.0
2016-Nov-27 06:31N 69°31' E 017°54'0 0.0
2016-Nov-27 05:32N 69°31' E 017°54'0 0.0
2016-Nov-27 04:32N 69°31' E 017°54'0 0.0
2016-Nov-27 03:32N 69°31' E 017°54'0 0.0
2016-Nov-27 02:33N 69°31' E 017°54'0 0.0
2016-Nov-27 01:33N 69°31' E 017°54'0 0.0
2016-Nov-27 00:32N 69°31' E 017°54'0 0.0
2016-Nov-26 23:33N 69°31' E 017°54'0 0.0
2016-Nov-26 22:33N 69°31' E 017°54'0 0.0
2016-Nov-26 21:32N 69°31' E 017°54'0 0.0
2016-Nov-26 20:32N 69°31' E 017°54'0 0.0
2016-Nov-26 19:33N 69°31' E 017°54'0 0.0
2016-Nov-26 18:32N 69°31' E 017°54'0 0.0
2016-Nov-26 17:33N 69°31' E 017°54'0 0.0
2016-Nov-26 16:25N 69°31' E 017°54'0 0.0
2016-Nov-26 15:33N 69°31' E 017°54'0 0.0
2016-Nov-26 14:33N 69°31' E 017°54'0 0.0
2016-Nov-26 13:33N 69°31' E 017°54'0 0.0
2016-Nov-26 12:31N 69°31' E 017°54'0 0.0
2016-Nov-26 11:33N 69°31' E 017°54'0 0.0
2016-Nov-26 10:33N 69°31' E 017°54'0 0.0
2016-Nov-26 09:31N 69°31' E 017°54'0 0.0
2016-Nov-26 08:31N 69°31' E 017°54'0 0.0
2016-Nov-26 07:33N 69°31' E 017°54'0 0.0
2016-Nov-26 06:31N 69°31' E 017°54'0 0.0
2016-Nov-26 05:33N 69°31' E 017°54'0 0.0
2016-Nov-26 04:28N 69°31' E 017°54'0 0.0
2016-Nov-26 03:33N 69°31' E 017°54'0 0.0
2016-Nov-26 02:33N 69°31' E 017°54'0 0.0
2016-Nov-26 01:33N 69°31' E 017°54'0 0.0
2016-Nov-26 00:31N 69°31' E 017°54'0 0.0
2016-Nov-25 23:30N 69°31' E 017°54'0 0.0
2016-Nov-25 22:33N 69°31' E 017°54'0 0.0
2016-Nov-25 21:32N 69°31' E 017°54'0 0.0
2016-Nov-25 20:30N 69°31' E 017°54'0 0.0
2016-Nov-25 19:32N 69°31' E 017°54'0 0.0
2016-Nov-25 18:32N 69°31' E 017°54'0 0.0
2016-Nov-25 17:30N 69°31' E 017°54'0 0.0
2016-Nov-25 16:32N 69°31' E 017°54'  
Track history (hours):
 
Tides and Currents Weather Stations Pressure Air Temp Water Temp Dewpoint Dewpoint Depression Visibility Wind Speed Wind Dir Waves Ship Positions

Monsun

Last reported at 2016-Dec-02 20:30 UTC. Time now 2016-Dec-05 16:38 UTC.
Position N 69°31' E 017°39'.

Length 10 m.

Type: Fishing. MMSI: 257005610.

Date/timePositionNaut miles runAvg speedWind from/ knotsBaromVisibWave heightAir tempDewpointWater temp
2016-Dec-02 20:30N 69°31' E 017°39'2 1.6
2016-Dec-02 19:19N 69°33' E 017°40'3 4.2
2016-Dec-02 18:33N 69°36' E 017°37'2 2.2
2016-Dec-02 17:32N 69°35' E 017°43'2 2.1
2016-Dec-02 16:32N 69°34' E 017°38'3 3.2
2016-Dec-02 15:32N 69°36' E 017°44'0 0.5
2016-Dec-02 14:32N 69°37' E 017°44'2 2.4
2016-Dec-02 13:34N 69°39' E 017°42'5 5.3
2016-Dec-02 12:33N 69°37' E 017°27'5 4.9
2016-Dec-02 11:32N 69°35' E 017°14'9 9.2
2016-Dec-02 10:31N 69°31' E 017°39'5 4.9
2016-Dec-02 09:31N 69°36' E 017°39'5 5.4
2016-Dec-02 08:33N 69°35' E 017°53'4 0.1
2016-Nov-30 15:32N 69°31' E 017°54'0 0.0
2016-Nov-30 14:31N 69°31' E 017°54'0 0.0
2016-Nov-30 13:33N 69°31' E 017°54'0 0.0
2016-Nov-30 12:33N 69°31' E 017°54'0 0.0
2016-Nov-30 11:31N 69°31' E 017°54'0 0.0
2016-Nov-30 10:33N 69°31' E 017°54'0 0.0
2016-Nov-30 09:31N 69°31' E 017°54'0 0.0
2016-Nov-30 08:32N 69°31' E 017°54'0 0.0
2016-Nov-30 07:32N 69°31' E 017°54'0 0.0
2016-Nov-30 06:33N 69°31' E 017°54'0 0.0
2016-Nov-30 05:32N 69°31' E 017°54'0 0.0
2016-Nov-30 04:31N 69°31' E 017°54'0 0.0
2016-Nov-30 03:30N 69°31' E 017°54'0 0.0
2016-Nov-30 02:33N 69°31' E 017°54'0 0.0
2016-Nov-30 01:32N 69°31' E 017°54'0 0.0
2016-Nov-30 00:31N 69°31' E 017°54'0 0.0
2016-Nov-29 23:32N 69°31' E 017°54'0 0.0
2016-Nov-29 22:31N 69°31' E 017°54'0 0.0
2016-Nov-29 21:33N 69°31' E 017°54'0 0.0
2016-Nov-29 20:32N 69°31' E 017°54'0 0.0
2016-Nov-29 19:32N 69°31' E 017°54'0 0.0
2016-Nov-29 18:31N 69°31' E 017°54'0 0.0
2016-Nov-29 17:31N 69°31' E 017°54'0 0.0
2016-Nov-29 16:34N 69°31' E 017°54'0 0.0
2016-Nov-29 15:32N 69°31' E 017°54'0 0.0
2016-Nov-29 14:33N 69°31' E 017°54'0 0.0
2016-Nov-29 13:31N 69°31' E 017°54'0 0.0
2016-Nov-29 12:33N 69°31' E 017°54'0 0.0
2016-Nov-29 11:32N 69°31' E 017°54'0 0.0
2016-Nov-29 10:33N 69°31' E 017°54'0 0.0
2016-Nov-29 09:33N 69°31' E 017°54'0 0.0
2016-Nov-29 08:33N 69°31' E 017°54'0 0.0
2016-Nov-29 07:31N 69°31' E 017°54'0 0.0
2016-Nov-29 06:33N 69°31' E 017°54'0 0.0
2016-Nov-29 05:32N 69°31' E 017°54'0 0.0
2016-Nov-29 04:33N 69°31' E 017°54'0 0.0
2016-Nov-29 03:33N 69°31' E 017°54'0 0.0
2016-Nov-29 02:30N 69°31' E 017°54'0 0.0
2016-Nov-29 01:31N 69°31' E 017°54'0 0.0
2016-Nov-29 00:33N 69°31' E 017°54'0 0.0
2016-Nov-28 23:32N 69°31' E 017°54'0 0.0
2016-Nov-28 22:33N 69°31' E 017°54'0 0.0
2016-Nov-28 21:32N 69°31' E 017°54'0 0.0
2016-Nov-28 20:33N 69°31' E 017°54'0 0.0
2016-Nov-28 19:32N 69°31' E 017°54'0 0.0
2016-Nov-28 18:33N 69°31' E 017°54'0 0.0
2016-Nov-28 17:34N 69°31' E 017°54'0 0.0
2016-Nov-28 16:30N 69°31' E 017°54'0 0.0
2016-Nov-28 15:31N 69°31' E 017°54'0 0.0
2016-Nov-28 14:33N 69°31' E 017°54'0 0.0
2016-Nov-28 13:31N 69°31' E 017°54'0 0.0
2016-Nov-28 12:31N 69°31' E 017°54'0 0.0
2016-Nov-28 11:32N 69°31' E 017°54'0 0.0
2016-Nov-28 10:33N 69°31' E 017°54'0 0.0
2016-Nov-28 09:33N 69°31' E 017°54'0 0.0
2016-Nov-28 08:32N 69°31' E 017°54'0 0.0
2016-Nov-28 07:30N 69°31' E 017°54'0 0.0
2016-Nov-28 06:30N 69°31' E 017°54'0 0.0
2016-Nov-28 05:30N 69°31' E 017°54'0 0.0
2016-Nov-28 04:31N 69°31' E 017°54'0 0.0
2016-Nov-28 03:33N 69°31' E 017°54'0 0.0
2016-Nov-28 02:32N 69°31' E 017°54'0 0.0
2016-Nov-28 01:31N 69°31' E 017°54'0 0.0
2016-Nov-28 00:32N 69°31' E 017°54'0 0.0
2016-Nov-27 23:33N 69°31' E 017°54'0 0.0
2016-Nov-27 22:31N 69°31' E 017°54'0 0.0
2016-Nov-27 21:33N 69°31' E 017°54'0 0.0
2016-Nov-27 20:28N 69°31' E 017°54'0 0.0
2016-Nov-27 19:33N 69°31' E 017°54'0 0.0
2016-Nov-27 18:33N 69°31' E 017°54'0 0.0
2016-Nov-27 17:31N 69°31' E 017°54'0 0.0
2016-Nov-27 16:29N 69°31' E 017°54'0 0.0
2016-Nov-27 15:33N 69°31' E 017°54'0 0.0
2016-Nov-27 14:33N 69°31' E 017°54'0 0.0
2016-Nov-27 13:30N 69°31' E 017°54'0 0.0
2016-Nov-27 12:31N 69°31' E 017°54'0 0.0
2016-Nov-27 11:32N 69°31' E 017°54'0 0.0
2016-Nov-27 10:32N 69°31' E 017°54'0 0.0
2016-Nov-27 09:33N 69°31' E 017°54'0 0.0
2016-Nov-27 08:32N 69°31' E 017°54'0 0.0
2016-Nov-27 07:33N 69°31' E 017°54'0 0.0
2016-Nov-27 06:31N 69°31' E 017°54'0 0.0
2016-Nov-27 05:32N 69°31' E 017°54'0 0.0
2016-Nov-27 04:32N 69°31' E 017°54'0 0.0
2016-Nov-27 03:32N 69°31' E 017°54'0 0.0
2016-Nov-27 02:33N 69°31' E 017°54'0 0.0
2016-Nov-27 01:33N 69°31' E 017°54'0 0.0
2016-Nov-27 00:32N 69°31' E 017°54'0 0.0
2016-Nov-26 23:33N 69°31' E 017°54'0 0.0
2016-Nov-26 22:33N 69°31' E 017°54'0 0.0
2016-Nov-26 21:32N 69°31' E 017°54'0 0.0
2016-Nov-26 20:32N 69°31' E 017°54'0 0.0
2016-Nov-26 19:33N 69°31' E 017°54'0 0.0
2016-Nov-26 18:32N 69°31' E 017°54'0 0.0
2016-Nov-26 17:33N 69°31' E 017°54'0 0.0
2016-Nov-26 16:25N 69°31' E 017°54'0 0.0
2016-Nov-26 15:33N 69°31' E 017°54'0 0.0
2016-Nov-26 14:33N 69°31' E 017°54'0 0.0
2016-Nov-26 13:33N 69°31' E 017°54'0 0.0
2016-Nov-26 12:31N 69°31' E 017°54'0 0.0
2016-Nov-26 11:33N 69°31' E 017°54'0 0.0
2016-Nov-26 10:33N 69°31' E 017°54'0 0.0
2016-Nov-26 09:31N 69°31' E 017°54'0 0.0
2016-Nov-26 08:31N 69°31' E 017°54'0 0.0
2016-Nov-26 07:33N 69°31' E 017°54'0 0.0
2016-Nov-26 06:31N 69°31' E 017°54'0 0.0
2016-Nov-26 05:33N 69°31' E 017°54'0 0.0
2016-Nov-26 04:28N 69°31' E 017°54'0 0.0
2016-Nov-26 03:33N 69°31' E 017°54'0 0.0
2016-Nov-26 02:33N 69°31' E 017°54'0 0.0
2016-Nov-26 01:33N 69°31' E 017°54'0 0.0
2016-Nov-26 00:31N 69°31' E 017°54'0 0.0
2016-Nov-25 23:30N 69°31' E 017°54'0 0.0
2016-Nov-25 22:33N 69°31' E 017°54'0 0.0
2016-Nov-25 21:32N 69°31' E 017°54'0 0.0
2016-Nov-25 20:30N 69°31' E 017°54'0 0.0
2016-Nov-25 19:32N 69°31' E 017°54'0 0.0
2016-Nov-25 18:32N 69°31' E 017°54'0 0.0
2016-Nov-25 17:30N 69°31' E 017°54'0 0.0
2016-Nov-25 16:32N 69°31' E 017°54'  

Dump ship's entire track history